Terminal Aerodrome Forecast
Issued by NWS

Home | Current Version | Previous Version | Text Only | Print | Product List | Glossary On
Versions: 1 2 3 4 5 6 7 8 9 10 11 12 13 14 15 16
458
FTUS44 KTSA 250118 AAA
TAFXNA
TAF AMD
KXNA 250118Z 2501/2524 14005KT P6SM BKN040
      TEMPO 2508/2512 3SM TSRA BR BKN015CB
     FM251200 29005KT 3SM BR OVC025=

USA.gov is the U.S. government's official web portal to all federal, state and local government web resources and services.